Time;durP1;ratioP1;P1;durP2;ratioP2;P2;SDS_P1;SDS_P2;PMS_P1;PMS_P2;Temp;Humidity;BMP_temperature;BMP_pressure;BME280_temperature;BME280_humidity;BME280_pressure;Samples;Min_cycle;Max_cycle;Signal;HPM_P1;HPM_P2
2023/10/07 00:02:14;;;;;;;6.78;2.63;;;;;;;;;;5095285;28;20040;-67
2023/10/07 00:04:41;;;;;;;10.60;2.67;;;;;;;;;;5095034;28;20358;-67
2023/10/07 00:07:11;;;;;;;3.72;2.08;;;;;;;;;;5095235;28;20026;-67
2023/10/07 00:09:41;;;;;;;6.00;2.35;;;;;;;;;;5095854;28;20084;-67
2023/10/07 00:12:16;;;;;;;11.07;2.33;;;;;;;;;;5077341;28;20046;-67
2023/10/07 00:14:43;;;;;;;5.72;2.58;;;;;;;;;;5095113;28;20024;-67
2023/10/07 00:17:19;;;;;;;6.30;2.35;;;;;;;;;;5094791;28;20032;-67
2023/10/07 00:19:46;;;;;;;5.38;2.58;;;;;;;;;;5094580;28;20117;-67
2023/10/07 00:22:19;;;;;;;7.95;2.50;;;;;;;;;;5095198;28;20050;-67
2023/10/07 00:24:48;;;;;;;7.00;2.22;;;;;;;;;;5094765;28;20519;-67
2023/10/07 00:27:48;;;;;;;6.38;2.45;;;;;;;;;;5094681;28;20030;-67
2023/10/07 00:30:15;;;;;;;5.00;2.00;;;;;;;;;;5091942;28;20512;-67
2023/10/07 00:32:45;;;;;;;8.05;2.50;;;;;;;;;;5094971;28;20024;-67
2023/10/07 00:35:12;;;;;;;3.50;1.58;;;;;;;;;;5094223;28;20501;-67
2023/10/07 00:37:44;;;;;;;6.25;2.20;;;;;;;;;;5093330;28;20042;-67
2023/10/07 00:40:40;;;;;;;7.22;2.67;;;;;;;;;;5094532;28;20038;-67
2023/10/07 00:43:09;;;;;;;5.03;2.55;;;;;;;;;;5094540;28;20024;-67
2023/10/07 00:45:35;;;;;;;4.72;2.03;;;;;;;;;;5094416;28;20027;-67
2023/10/07 00:48:05;;;;;;;5.95;2.65;;;;;;;;;;5094061;28;20024;-67
2023/10/07 00:50:34;;;;;;;4.20;2.05;;;;;;;;;;5094657;28;20035;-67
2023/10/07 00:53:05;;;;;;;6.10;2.10;;;;;;;;;;5094243;28;20032;-67
2023/10/07 00:55:36;;;;;;;10.25;2.92;;;;;;;;;;5094436;28;20035;-67
2023/10/07 00:58:26;;;;;;;5.03;2.13;;;;;;;;;;5094221;28;20040;-67
2023/10/07 01:00:55;;;;;;;7.90;2.70;;;;;;;;;;5094154;28;20024;-67
2023/10/07 01:08:44;;;;;;;9.50;3.25;;;;;;;;;;5094104;28;20028;-67
2023/10/07 01:13:50;;;;;;;8.70;2.15;;;;;;;;;;5093802;28;20024;-67
2023/10/07 01:16:33;;;;;;;9.32;2.50;;;;;;;;;;5093873;28;20088;-67
2023/10/07 01:19:14;;;;;;;6.50;2.17;;;;;;;;;;5094088;28;20028;-67
2023/10/07 01:21:58;;;;;;;5.55;2.45;;;;;;;;;;5093779;28;20391;-67
2023/10/07 01:27:16;;;;;;;3.97;1.98;;;;;;;;;;5093540;28;20031;-67
2023/10/07 01:29:42;;;;;;;5.10;2.22;;;;;;;;;;5093612;28;20020;-67
2023/10/07 01:32:17;;;;;;;8.27;2.33;;;;;;;;;;5093510;28;20032;-67
2023/10/07 01:34:52;;;;;;;6.90;2.22;;;;;;;;;;5093753;28;20027;-67
2023/10/07 01:37:21;;;;;;;6.00;2.28;;;;;;;;;;5093398;28;20480;-67
2023/10/07 01:39:52;;;;;;;4.35;2.40;;;;;;;;;;5093688;28;20028;-67
2023/10/07 01:42:43;;;;;;;8.70;2.42;;;;;;;;;;5093434;28;20024;-67
2023/10/07 01:45:20;;;;;;;7.82;2.90;;;;;;;;;;5093229;28;20392;-67
2023/10/07 01:47:55;;;;;;;6.47;2.53;;;;;;;;;;5093019;28;20030;-67
2023/10/07 01:50:24;;;;;;;5.03;2.47;;;;;;;;;;5093535;28;20121;-67
2023/10/07 01:52:55;;;;;;;4.85;2.17;;;;;;;;;;5092185;28;20016;-67
2023/10/07 01:55:23;;;;;;;5.70;1.80;;;;;;;;;;5093039;28;20047;-67
2023/10/07 01:57:52;;;;;;;6.20;2.08;;;;;;;;;;5093184;28;20485;-67
2023/10/07 02:00:44;;;;;;;6.22;2.58;;;;;;;;;;5092851;28;20020;-67
2023/10/07 02:03:14;;;;;;;10.43;2.60;;;;;;;;;;5093053;28;20526;-67
2023/10/07 02:05:41;;;;;;;6.00;2.20;;;;;;;;;;5093171;28;20046;-67
2023/10/07 02:08:13;;;;;;;4.18;2.30;;;;;;;;;;5091699;28;20034;-67
2023/10/07 02:10:45;;;;;;;6.95;2.65;;;;;;;;;;5092960;28;20034;-67
2023/10/07 02:13:14;;;;;;;5.70;2.70;;;;;;;;;;5093166;28;20023;-67
2023/10/07 02:15:42;;;;;;;5.32;2.50;;;;;;;;;;5092659;28;20033;-66
2023/10/07 02:18:18;;;;;;;5.93;2.40;;;;;;;;;;5092714;28;20492;-67
2023/10/07 02:21:10;;;;;;;4.28;1.95;;;;;;;;;;5093280;28;20028;-67
2023/10/07 02:26:05;;;;;;;6.68;2.70;;;;;;;;;;5092793;28;20384;-67
2023/10/07 02:28:33;;;;;;;6.45;2.42;;;;;;;;;;5092607;28;20031;-67
2023/10/07 02:31:00;;;;;;;5.75;2.97;;;;;;;;;;5092658;28;20068;-67
2023/10/07 02:33:27;;;;;;;6.43;2.28;;;;;;;;;;5092704;28;20027;-67
2023/10/07 02:35:55;;;;;;;4.50;2.10;;;;;;;;;;5093009;28;20028;-67
2023/10/07 02:38:41;;;;;;;9.07;2.38;;;;;;;;;;5092725;28;20036;-66
2023/10/07 02:41:17;;;;;;;8.35;2.50;;;;;;;;;;5092868;28;20035;-67
2023/10/07 02:43:48;;;;;;;5.43;2.10;;;;;;;;;;5092210;28;20511;-67
2023/10/07 02:46:33;;;;;;;8.18;2.40;;;;;;;;;;5092851;28;20498;-67
2023/10/07 02:49:09;;;;;;;9.93;2.60;;;;;;;;;;5092579;28;20028;-67
2023/10/07 02:51:42;;;;;;;5.00;2.38;;;;;;;;;;5092577;28;20019;-67
2023/10/07 02:56:44;;;;;;;4.97;2.05;;;;;;;;;;5092376;28;20036;-67
2023/10/07 02:59:25;;;;;;;6.75;1.85;;;;;;;;;;5092260;28;20076;-67
2023/10/07 03:02:12;;;;;;;8.18;2.67;;;;;;;;;;5092425;28;20473;-67
2023/10/07 03:04:41;;;;;;;4.47;2.20;;;;;;;;;;5094105;28;20476;-67
2023/10/07 03:07:13;;;;;;;7.60;2.20;;;;;;;;;;5096487;28;20032;-67
2023/10/07 03:09:51;;;;;;;5.88;2.65;;;;;;;;;;5096367;28;20023;-67
2023/10/07 03:12:27;;;;;;;8.30;2.38;;;;;;;;;;5096626;28;20024;-67
2023/10/07 03:14:57;;;;;;;5.88;2.45;;;;;;;;;;5096351;28;20024;-67
2023/10/07 03:17:33;;;;;;;7.93;3.13;;;;;;;;;;5096152;28;20051;-67
2023/10/07 03:20:28;;;;;;;7.57;2.55;;;;;;;;;;5096167;28;20032;-67
2023/10/07 03:26:13;;;;;;;8.77;2.50;;;;;;;;;;5096355;28;20094;-67
2023/10/07 03:28:21;;;;;;;5.18;2.47;;;;;;;;;;5087101;28;20536;-67
2023/10/07 03:30:51;;;;;;;4.88;1.98;;;;;;;;;;5095898;28;20039;-67
2023/10/07 03:33:23;;;;;;;6.22;2.53;;;;;;;;;;5095853;28;20370;-67
2023/10/07 03:38:25;;;;;;;4.38;2.28;;;;;;;;;;5095827;28;20024;-67
2023/10/07 03:40:55;;;;;;;6.72;2.28;;;;;;;;;;5095637;28;20473;-67
2023/10/07 03:43:25;;;;;;;5.77;2.47;;;;;;;;;;5095625;28;20036;-67
2023/10/07 03:45:52;;;;;;;7.53;2.33;;;;;;;;;;5095843;28;20266;-67
2023/10/07 03:48:24;;;;;;;5.68;2.30;;;;;;;;;;5095670;28;20026;-67
2023/10/07 03:51:04;;;;;;;10.35;2.47;;;;;;;;;;5095521;28;20031;-67
2023/10/07 03:53:44;;;;;;;4.35;2.28;;;;;;;;;;5095354;28;20040;-67
2023/10/07 03:56:12;;;;;;;5.88;2.65;;;;;;;;;;5095040;28;20040;-67
2023/10/07 03:58:41;;;;;;;4.72;2.40;;;;;;;;;;5095611;28;20052;-67
2023/10/07 04:01:17;;;;;;;4.97;2.35;;;;;;;;;;5095648;28;20024;-67
2023/10/07 04:03:47;;;;;;;6.10;2.40;;;;;;;;;;5095355;28;20477;-67
2023/10/07 04:06:17;;;;;;;5.05;2.25;;;;;;;;;;5095459;28;20080;-67
2023/10/07 04:08:45;;;;;;;8.25;2.25;;;;;;;;;;5095177;28;20032;-67
2023/10/07 04:11:19;;;;;;;5.03;2.45;;;;;;;;;;5094785;28;20024;-67
2023/10/07 04:13:53;;;;;;;5.30;2.33;;;;;;;;;;5095184;28;20027;-67
2023/10/07 04:16:23;;;;;;;9.00;2.35;;;;;;;;;;5093767;28;20382;-67
2023/10/07 04:18:50;;;;;;;3.87;1.90;;;;;;;;;;5095038;28;20024;-67
2023/10/07 04:21:17;;;;;;;5.13;2.22;;;;;;;;;;5095084;28;20611;-67
2023/10/07 04:23:46;;;;;;;5.93;2.42;;;;;;;;;;5094725;28;20412;-67
2023/10/07 04:26:20;;;;;;;4.68;2.40;;;;;;;;;;5094800;28;20024;-67
2023/10/07 04:28:48;;;;;;;5.38;1.95;;;;;;;;;;5094499;28;20412;-67
2023/10/07 04:31:17;;;;;;;8.38;2.22;;;;;;;;;;5094843;28;20434;-67
2023/10/07 04:33:48;;;;;;;4.78;2.08;;;;;;;;;;5094683;28;20026;-67
2023/10/07 04:36:15;;;;;;;7.05;2.65;;;;;;;;;;5094980;28;20027;-67
2023/10/07 04:38:56;;;;;;;6.78;2.97;;;;;;;;;;5076799;28;20031;-67
2023/10/07 04:46:43;;;;;;;5.65;2.50;;;;;;;;;;5094372;28;20027;-67
2023/10/07 04:49:12;;;;;;;3.45;1.95;;;;;;;;;;5094639;28;20028;-67
2023/10/07 04:54:10;;;;;;;4.25;1.88;;;;;;;;;;5093794;28;20055;-67
2023/10/07 04:56:39;;;;;;;8.43;2.38;;;;;;;;;;5094353;28;20491;-67
2023/10/07 04:59:09;;;;;;;7.57;2.10;;;;;;;;;;5094192;28;20039;-67
2023/10/07 05:01:41;;;;;;;5.35;2.30;;;;;;;;;;5094422;28;20028;-67
2023/10/07 05:04:15;;;;;;;5.53;2.83;;;;;;;;;;5094093;28;20024;-67
2023/10/07 05:06:43;;;;;;;5.57;2.30;;;;;;;;;;5094073;28;20020;-67
2023/10/07 05:09:10;;;;;;;6.32;1.85;;;;;;;;;;5093785;28;20019;-67
2023/10/07 05:11:43;;;;;;;3.95;2.25;;;;;;;;;;5093832;28;20020;-67
2023/10/07 05:14:10;;;;;;;5.50;2.50;;;;;;;;;;5093850;28;20374;-67
2023/10/07 05:16:37;;;;;;;4.53;2.10;;;;;;;;;;5093567;28;20020;-67
2023/10/07 05:19:04;;;;;;;5.70;2.25;;;;;;;;;;5093951;28;20446;-67
2023/10/07 05:21:31;;;;;;;6.63;2.13;;;;;;;;;;5093780;28;20027;-67
2023/10/07 05:24:02;;;;;;;5.07;2.25;;;;;;;;;;5093635;28;20052;-67
2023/10/07 05:26:31;;;;;;;9.57;2.78;;;;;;;;;;5093663;28;20050;-67
2023/10/07 05:29:02;;;;;;;7.70;2.40;;;;;;;;;;5093301;28;20070;-67
2023/10/07 05:31:33;;;;;;;7.70;2.60;;;;;;;;;;5093602;28;20024;-67
2023/10/07 05:34:00;;;;;;;;;;;;;;;;;;5094256;28;20046;-67
2023/10/07 05:36:30;;;;;;;5.82;2.33;;;;;;;;;;5093609;28;20299;-67
2023/10/07 05:38:57;;;;;;;8.87;2.60;;;;;;;;;;5093417;28;20028;-67
2023/10/07 05:41:25;;;;;;;6.32;2.50;;;;;;;;;;5093325;28;20026;-67
2023/10/07 05:43:52;;;;;;;4.68;2.20;;;;;;;;;;5093467;28;20480;-67
2023/10/07 05:46:19;;;;;;;5.25;2.47;;;;;;;;;;5093323;28;20027;-67
2023/10/07 05:48:46;;;;;;;4.38;2.08;;;;;;;;;;5093275;28;20036;-67
2023/10/07 05:51:12;;;;;;;8.07;2.58;;;;;;;;;;5093163;28;20026;-67
2023/10/07 05:53:42;;;;;;;7.30;2.63;;;;;;;;;;5091557;28;20058;-67
2023/10/07 05:56:09;;;;;;;8.63;2.70;;;;;;;;;;5093176;28;20020;-67
2023/10/07 05:58:36;;;;;;;6.68;2.60;;;;;;;;;;5093106;28;20077;-67
2023/10/07 06:01:03;;;;;;;6.38;2.90;;;;;;;;;;5092120;28;20032;-67
2023/10/07 06:03:30;;;;;;;4.93;2.35;;;;;;;;;;5093068;28;20514;-67
2023/10/07 06:05:57;;;;;;;8.30;2.10;;;;;;;;;;5092886;28;20028;-67
2023/10/07 06:08:27;;;;;;;9.00;2.63;;;;;;;;;;5092651;28;20524;-67
2023/10/07 06:10:56;;;;;;;11.95;2.65;;;;;;;;;;5092898;28;20365;-67
2023/10/07 06:13:22;;;;;;;7.15;2.10;;;;;;;;;;5092829;28;20023;-67
2023/10/07 06:15:49;;;;;;;5.80;2.67;;;;;;;;;;5092714;28;20020;-67
2023/10/07 06:18:18;;;;;;;6.32;3.03;;;;;;;;;;5093139;28;20068;-67
2023/10/07 06:20:48;;;;;;;6.90;3.00;;;;;;;;;;5093052;28;20032;-67
2023/10/07 06:23:15;;;;;;;9.07;2.83;;;;;;;;;;5092351;28;20024;-67
2023/10/07 06:25:44;;;;;;;7.85;3.22;;;;;;;;;;5092942;28;20031;-67
2023/10/07 06:28:10;;;;;;;9.35;3.60;;;;;;;;;;5092574;28;20040;-67
2023/10/07 06:30:42;;;;;;;5.97;3.42;;;;;;;;;;5092677;28;20090;-67
2023/10/07 06:33:12;;;;;;;10.38;3.40;;;;;;;;;;5092603;28;20016;-67
2023/10/07 06:35:38;;;;;;;13.45;3.65;;;;;;;;;;5092340;28;20019;-67
2023/10/07 06:38:05;;;;;;;12.13;4.50;;;;;;;;;;5092862;28;20028;-67
2023/10/07 06:40:35;;;;;;;10.32;3.22;;;;;;;;;;5094704;28;20032;-67
2023/10/07 06:43:01;;;;;;;8.82;3.47;;;;;;;;;;5096713;28;20031;-67
2023/10/07 06:45:36;;;;;;;5.60;2.75;;;;;;;;;;5096958;28;20155;-67
2023/10/07 06:48:09;;;;;;;16.75;3.20;;;;;;;;;;5096799;28;20028;-67
2023/10/07 06:50:35;;;;;;;34.30;5.50;;;;;;;;;;5096575;28;20076;-67
2023/10/07 06:53:02;;;;;;;43.03;7.40;;;;;;;;;;5096858;28;20020;-67
2023/10/07 06:55:36;;;;;;;47.13;5.82;;;;;;;;;;5096554;28;20395;-67
2023/10/07 06:58:04;;;;;;;23.13;6.47;;;;;;;;;;5096600;28;20031;-67
2023/10/07 07:00:47;;;;;;;39.42;12.80;;;;;;;;;;5096557;28;20016;-67
2023/10/07 07:03:14;;;;;;;34.60;10.55;;;;;;;;;;5096431;28;20039;-67
2023/10/07 07:05:41;;;;;;;35.80;11.00;;;;;;;;;;5096221;28;20525;-67
2023/10/07 07:08:10;;;;;;;33.05;8.85;;;;;;;;;;5096302;28;20028;-67
2023/10/07 07:10:37;;;;;;;31.15;8.82;;;;;;;;;;5096376;28;20026;-67
2023/10/07 07:13:12;;;;;;;30.33;6.72;;;;;;;;;;5096201;28;20032;-67
2023/10/07 07:15:41;;;;;;;24.55;5.85;;;;;;;;;;5096057;28;20082;-67
2023/10/07 07:23:35;;;;;;;8.35;3.20;;;;;;;;;;5096014;28;20077;-67
2023/10/07 07:28:30;;;;;;;22.75;3.08;;;;;;;;;;5095779;28;20032;-67
2023/10/07 07:31:00;;;;;;;9.77;2.88;;;;;;;;;;5096123;28;20469;-67
2023/10/07 07:33:34;;;;;;;11.23;2.83;;;;;;;;;;5095524;28;20030;-67
2023/10/07 07:36:07;;;;;;;26.45;3.60;;;;;;;;;;5095829;28;20030;-67
2023/10/07 07:38:46;;;;;;;10.43;2.72;;;;;;;;;;5096108;28;20027;-67
2023/10/07 07:43:59;;;;;;;5.30;2.60;;;;;;;;;;5095695;28;20030;-67
2023/10/07 07:46:26;;;;;;;5.65;2.97;;;;;;;;;;5078014;28;20042;-67
2023/10/07 07:49:04;;;;;;;10.52;3.13;;;;;;;;;;5095089;28;20040;-68
2023/10/07 07:51:37;;;;;;;10.85;3.30;;;;;;;;;;5095680;28;20464;-68
2023/10/07 07:54:06;;;;;;;15.82;3.90;;;;;;;;;;5095151;28;20085;-68
2023/10/07 07:56:34;;;;;;;6.63;2.90;;;;;;;;;;5095354;28;20027;-68
2023/10/07 07:59:01;;;;;;;5.45;3.10;;;;;;;;;;5095363;28;20028;-68
2023/10/07 08:01:28;;;;;;;6.43;3.17;;;;;;;;;;5095263;28;20044;-68
2023/10/07 08:03:59;;;;;;;7.07;3.20;;;;;;;;;;5093956;28;20028;-68
2023/10/07 08:06:25;;;;;;;6.28;3.05;;;;;;;;;;5095144;28;20036;-68
2023/10/07 08:08:53;;;;;;;4.68;3.03;;;;;;;;;;5095161;28;20028;-68
2023/10/07 08:11:20;;;;;;;5.15;3.45;;;;;;;;;;5095571;28;20030;-68
2023/10/07 08:13:48;;;;;;;6.95;3.40;;;;;;;;;;5095032;28;20034;-68
2023/10/07 08:16:18;;;;;;;4.47;3.10;;;;;;;;;;5094841;28;20013;-68
2023/10/07 08:18:48;;;;;;;6.90;3.33;;;;;;;;;;5094520;28;20028;-68
2023/10/07 08:21:15;;;;;;;6.72;3.60;;;;;;;;;;5095320;28;20069;-68
2023/10/07 08:23:51;;;;;;;7.78;3.67;;;;;;;;;;5094859;28;20020;-68
2023/10/07 08:26:22;;;;;;;6.00;3.33;;;;;;;;;;5095247;28;20028;-68
2023/10/07 08:29:13;;;;;;;4.65;2.90;;;;;;;;;;5094504;28;20518;-68
2023/10/07 08:31:37;;;;;;;4.25;2.60;;;;;;;;;;5094266;28;20515;-68
2023/10/07 08:36:36;;;;;;;5.45;3.08;;;;;;;;;;5094751;28;20024;-68
2023/10/07 08:39:08;;;;;;;7.03;3.08;;;;;;;;;;5094671;28;20383;-68
2023/10/07 08:41:37;;;;;;;5.18;2.80;;;;;;;;;;5094685;28;20517;-66
2023/10/07 08:44:12;;;;;;;8.40;3.08;;;;;;;;;;5094448;28;20365;-66
2023/10/07 08:46:39;;;;;;;7.38;3.00;;;;;;;;;;5094172;28;20476;-66
2023/10/07 08:49:15;;;;;;;7.22;2.95;;;;;;;;;;5094427;28;20396;-66
2023/10/07 08:51:45;;;;;;;3.65;2.55;;;;;;;;;;5094642;28;20012;-66
2023/10/07 08:54:17;;;;;;;4.87;2.87;;;;;;;;;;5094211;28;20545;-66
2023/10/07 08:56:52;;;;;;;4.10;2.80;;;;;;;;;;5094251;28;20258;-66
2023/10/07 08:59:22;;;;;;;4.88;2.97;;;;;;;;;;5094174;28;20022;-66
2023/10/07 09:01:57;;;;;;;6.22;2.75;;;;;;;;;;5093317;28;20465;-66
2023/10/07 09:04:31;;;;;;;13.45;3.22;;;;;;;;;;5094309;28;20024;-66
2023/10/07 09:07:08;;;;;;;5.15;3.10;;;;;;;;;;5094021;28;20024;-66
2023/10/07 09:09:44;;;;;;;7.55;2.92;;;;;;;;;;5093074;28;20024;-66
2023/10/07 09:12:14;;;;;;;7.60;3.00;;;;;;;;;;5094232;28;20035;-66
2023/10/07 09:14:51;;;;;;;6.47;2.70;;;;;;;;;;5093710;28;20020;-66
2023/10/07 09:17:21;;;;;;;7.28;3.00;;;;;;;;;;5093878;28;20020;-66
2023/10/07 09:19:49;;;;;;;7.22;3.15;;;;;;;;;;5093770;28;20028;-66
2023/10/07 09:22:18;;;;;;;4.70;2.78;;;;;;;;;;5093794;28;20008;-66
2023/10/07 09:24:44;;;;;;;4.43;2.90;;;;;;;;;;5093616;28;20396;-66
2023/10/07 09:27:13;;;;;;;4.65;3.03;;;;;;;;;;5093686;28;20084;-66
2023/10/07 09:29:44;;;;;;;4.72;2.67;;;;;;;;;;5093589;28;20028;-66
2023/10/07 09:32:16;;;;;;;3.85;2.72;;;;;;;;;;5093565;28;20020;-66
2023/10/07 09:34:47;;;;;;;5.47;3.00;;;;;;;;;;5093468;28;20028;-67
2023/10/07 09:37:17;;;;;;;;;;;;;;;;;;5076096;28;20024;-66
2023/10/07 09:39:44;;;;;;;5.05;3.15;;;;;;;;;;5093508;28;19912;-66
2023/10/07 09:42:56;;;;;;;6.65;3.28;;;;;;;;;;5092661;28;20020;-66
2023/10/07 09:47:37;;;;;;;9.02;2.97;;;;;;;;;;5093514;28;20028;-66
2023/10/07 09:50:10;;;;;;;;;;;;;;;;;;5093804;28;20034;-66
2023/10/07 09:52:41;;;;;;;8.02;2.70;;;;;;;;;;5093552;28;19904;-66
2023/10/07 09:55:25;;;;;;;8.20;3.05;;;;;;;;;;5093060;28;20037;-66
2023/10/07 09:58:11;;;;;;;5.93;2.85;;;;;;;;;;5093317;28;20038;-66
2023/10/07 10:00:44;;;;;;;5.65;2.65;;;;;;;;;;5092795;28;20038;-66
2023/10/07 10:03:20;;;;;;;6.53;3.30;;;;;;;;;;5093089;28;20024;-66
2023/10/07 10:06:07;;;;;;;7.18;2.67;;;;;;;;;;5092998;28;20032;-68
2023/10/07 10:09:08;;;;;;;7.72;2.90;;;;;;;;;;5092852;28;20028;-68
2023/10/07 10:16:53;;;;;;;6.10;3.00;;;;;;;;;;5092621;28;20265;-68
2023/10/07 10:19:28;;;;;;;7.57;2.75;;;;;;;;;;5092840;28;20366;-68
2023/10/07 10:21:55;;;;;;;3.92;2.65;;;;;;;;;;5092852;28;20031;-68
2023/10/07 10:24:28;;;;;;;9.15;3.00;;;;;;;;;;5092768;28;20028;-66
2023/10/07 10:27:09;;;;;;;4.72;2.83;;;;;;;;;;5092845;28;20022;-66
2023/10/07 10:29:45;;;;;;;7.22;3.20;;;;;;;;;;5092919;28;20028;-66
2023/10/07 10:32:16;;;;;;;5.40;3.03;;;;;;;;;;5093165;28;20069;-66
2023/10/07 10:34:45;;;;;;;6.43;2.88;;;;;;;;;;5092722;28;20023;-66
2023/10/07 10:37:11;;;;;;;7.28;3.40;;;;;;;;;;5092637;28;20028;-66
2023/10/07 10:39:39;;;;;;;7.25;3.05;;;;;;;;;;5092766;28;20028;-66
2023/10/07 10:42:09;;;;;;;6.07;3.17;;;;;;;;;;5092247;28;20018;-66
2023/10/07 10:44:39;;;;;;;5.80;2.85;;;;;;;;;;5092593;28;20016;-66
2023/10/07 10:47:09;;;;;;;5.18;3.03;;;;;;;;;;5092602;28;20038;-67
2023/10/07 10:49:35;;;;;;;5.10;3.20;;;;;;;;;;5092824;28;20028;-66
2023/10/07 10:52:02;;;;;;;8.77;3.33;;;;;;;;;;5092844;28;20020;-66
2023/10/07 10:54:29;;;;;;;10.43;3.45;;;;;;;;;;5092396;28;20056;-67
2023/10/07 10:56:58;;;;;;;5.10;2.70;;;;;;;;;;5092324;28;20430;-66
2023/10/07 10:59:48;;;;;;;8.70;2.90;;;;;;;;;;5092760;28;20026;-66
2023/10/07 11:02:20;;;;;;;4.15;2.83;;;;;;;;;;5092431;28;20030;-67
2023/10/07 11:04:56;;;;;;;6.45;2.90;;;;;;;;;;5092679;28;20027;-67
2023/10/07 11:07:25;;;;;;;6.40;3.05;;;;;;;;;;5092161;28;20038;-67
2023/10/07 11:09:52;;;;;;;5.43;2.67;;;;;;;;;;5092362;28;20434;-67
2023/10/07 11:12:18;;;;;;;5.25;3.08;;;;;;;;;;5092024;28;20032;-66
2023/10/07 11:14:49;;;;;;;12.88;3.10;;;;;;;;;;5092568;28;20022;-67
2023/10/07 11:17:18;;;;;;;5.43;3.22;;;;;;;;;;5074184;28;20400;-67
2023/10/07 11:19:47;;;;;;;7.37;3.03;;;;;;;;;;5074245;28;20460;-67
2023/10/07 11:22:16;;;;;;;6.43;3.28;;;;;;;;;;5092452;28;20028;-67
2023/10/07 11:24:42;;;;;;;7.55;3.05;;;;;;;;;;5092610;28;20034;-67
2023/10/07 11:27:09;;;;;;;6.72;3.33;;;;;;;;;;5095832;28;20354;-67
2023/10/07 11:29:36;;;;;;;3.55;2.80;;;;;;;;;;5096277;28;20032;-67
2023/10/07 11:32:04;;;;;;;5.15;3.00;;;;;;;;;;5096151;28;20024;-67
2023/10/07 11:34:36;;;;;;;4.53;2.92;;;;;;;;;;5096146;28;20030;-68
2023/10/07 11:37:21;;;;;;;6.20;2.85;;;;;;;;;;5096047;28;20026;-70
2023/10/07 11:39:48;;;;;;;7.00;3.08;;;;;;;;;;5095910;28;20093;-67
2023/10/07 11:42:19;;;;;;;6.57;2.60;;;;;;;;;;5095431;28;20032;-68
2023/10/07 11:44:46;;;;;;;5.57;3.08;;;;;;;;;;5095586;28;20020;-67
2023/10/07 11:47:16;;;;;;;4.65;2.75;;;;;;;;;;5096045;28;20028;-67
2023/10/07 11:49:43;;;;;;;3.50;2.53;;;;;;;;;;5095719;28;20031;-68
2023/10/07 11:52:10;;;;;;;2.47;2.28;;;;;;;;;;5077299;28;20020;-68
2023/10/07 11:54:40;;;;;;;3.83;2.50;;;;;;;;;;5095150;28;20412;-68
2023/10/07 11:57:06;;;;;;;5.60;2.72;;;;;;;;;;5095392;28;20030;-68
2023/10/07 11:59:41;;;;;;;3.90;2.53;;;;;;;;;;5095404;28;20499;-68
2023/10/07 12:02:10;;;;;;;3.63;2.72;;;;;;;;;;5095563;28;20023;-68
2023/10/07 12:04:41;;;;;;;3.78;2.78;;;;;;;;;;5095352;28;20361;-68
2023/10/07 12:07:08;;;;;;;2.83;2.63;;;;;;;;;;5095268;28;20465;-67
2023/10/07 12:09:37;;;;;;;3.92;2.75;;;;;;;;;;5095165;28;20026;-68
2023/10/07 12:12:03;;;;;;;2.72;2.40;;;;;;;;;;5095067;28;20354;-68
2023/10/07 12:14:32;;;;;;;3.38;2.65;;;;;;;;;;5095176;28;20024;-67
2023/10/07 12:16:59;;;;;;;3.40;2.50;;;;;;;;;;5094925;28;20061;-68
2023/10/07 12:19:26;;;;;;;9.80;2.80;;;;;;;;;;5094827;28;20411;-68
2023/10/07 12:21:52;;;;;;;6.90;2.95;;;;;;;;;;5095340;28;20024;-68
2023/10/07 12:24:19;;;;;;;3.95;2.50;;;;;;;;;;5094664;28;20016;-68
2023/10/07 12:26:50;;;;;;;4.93;2.80;;;;;;;;;;5095028;28;20024;-68
2023/10/07 12:29:20;;;;;;;4.65;2.50;;;;;;;;;;5095188;28;20392;-68
2023/10/07 12:31:47;;;;;;;5.00;3.08;;;;;;;;;;5094656;28;20030;-68
2023/10/07 12:34:16;;;;;;;9.55;3.08;;;;;;;;;;5094706;28;20020;-68
2023/10/07 12:36:43;;;;;;;3.80;2.67;;;;;;;;;;5092741;28;20024;-68
2023/10/07 12:39:14;;;;;;;5.47;3.28;;;;;;;;;;5094270;28;20036;-67
2023/10/07 12:41:41;;;;;;;4.40;3.05;;;;;;;;;;5094902;28;20604;-67
2023/10/07 12:44:10;;;;;;;5.43;2.90;;;;;;;;;;5094696;28;20034;-68
2023/10/07 12:46:40;;;;;;;4.55;2.95;;;;;;;;;;5094818;28;20024;-68
2023/10/07 12:49:10;;;;;;;4.97;2.80;;;;;;;;;;5094507;28;20500;-68
2023/10/07 12:51:46;;;;;;;3.72;2.88;;;;;;;;;;5094475;28;20480;-68
2023/10/07 12:54:13;;;;;;;7.82;3.00;;;;;;;;;;5093900;28;20058;-68
2023/10/07 12:56:42;;;;;;;5.10;2.80;;;;;;;;;;5094246;28;20065;-68
2023/10/07 12:59:18;;;;;;;;;;;;;;;;;;5094703;28;20032;-68
2023/10/07 13:01:59;;;;;;;3.78;2.63;;;;;;;;;;5094280;28;19911;-68
2023/10/07 13:04:25;;;;;;;3.25;2.80;;;;;;;;;;5094473;28;20028;-68
2023/10/07 13:07:00;;;;;;;3.88;2.80;;;;;;;;;;5094067;28;20020;-68
2023/10/07 13:09:33;;;;;;;10.77;3.17;;;;;;;;;;5094315;28;20027;-68
2023/10/07 13:12:00;;;;;;;3.05;2.40;;;;;;;;;;5076226;28;20410;-68
2023/10/07 13:14:27;;;;;;;3.58;2.20;;;;;;;;;;5094229;28;20028;-68
2023/10/07 13:16:56;;;;;;;2.90;2.28;;;;;;;;;;5092905;28;20028;-68
2023/10/07 13:19:26;;;;;;;2.85;2.40;;;;;;;;;;5093774;28;20036;-68
2023/10/07 13:21:55;;;;;;;2.97;2.40;;;;;;;;;;5093488;28;20025;-68
2023/10/07 13:24:22;;;;;;;3.13;2.40;;;;;;;;;;5094303;28;20032;-68
2023/10/07 13:26:49;;;;;;;2.97;2.50;;;;;;;;;;5094008;28;20028;-68
2023/10/07 13:29:15;;;;;;;7.13;2.47;;;;;;;;;;5093822;28;20100;-68
2023/10/07 13:31:42;;;;;;;4.00;2.70;;;;;;;;;;5093825;28;20030;-67
2023/10/07 13:34:08;;;;;;;6.63;2.17;;;;;;;;;;5093597;28;20028;-68
2023/10/07 13:36:41;;;;;;;5.20;2.40;;;;;;;;;;5093302;28;20093;-68
2023/10/07 13:39:16;;;;;;;3.88;2.38;;;;;;;;;;5093619;28;20042;-67
2023/10/07 13:41:44;;;;;;;3.45;2.30;;;;;;;;;;5093435;28;20495;-68
2023/10/07 13:44:12;;;;;;;3.67;2.10;;;;;;;;;;5093256;28;20028;-68
2023/10/07 13:46:38;;;;;;;5.28;2.20;;;;;;;;;;5093406;28;20024;-68
2023/10/07 13:49:08;;;;;;;5.72;2.30;;;;;;;;;;5093460;28;20030;-68
2023/10/07 13:51:56;;;;;;;7.00;2.33;;;;;;;;;;5093254;28;20031;-68
2023/10/07 13:54:26;;;;;;;2.88;2.28;;;;;;;;;;5093202;28;20092;-67
2023/10/07 13:57:01;;;;;;;4.95;2.00;;;;;;;;;;5093106;28;20024;-67
2023/10/07 13:59:28;;;;;;;10.70;2.45;;;;;;;;;;5093045;28;20028;-67
2023/10/07 14:01:55;;;;;;;6.18;2.08;;;;;;;;;;5093460;28;20027;-67
2023/10/07 14:04:25;;;;;;;9.68;2.40;;;;;;;;;;5093114;28;20476;-67
2023/10/07 14:06:56;;;;;;;17.25;2.75;;;;;;;;;;5092919;28;20024;-67
2023/10/07 14:09:25;;;;;;;9.70;2.40;;;;;;;;;;5092956;28;20034;-67
2023/10/07 14:11:51;;;;;;;;;;;;;;;;;;5093424;28;20426;-67
2023/10/07 14:14:18;;;;;;;6.68;2.40;;;;;;;;;;5092987;28;19911;-67
2023/10/07 14:16:45;;;;;;;10.07;2.53;;;;;;;;;;5092934;28;20032;-67
2023/10/07 14:19:13;;;;;;;10.30;2.45;;;;;;;;;;5092900;28;20039;-67
2023/10/07 14:21:40;;;;;;;10.23;2.60;;;;;;;;;;5092616;28;20071;-68
2023/10/07 14:24:07;;;;;;;19.05;2.42;;;;;;;;;;5074696;28;20024;-67
2023/10/07 14:26:33;;;;;;;7.93;2.40;;;;;;;;;;5092824;28;20038;-67
2023/10/07 14:29:06;;;;;;;9.10;2.47;;;;;;;;;;5092856;28;20562;-67
2023/10/07 14:31:33;;;;;;;9.48;2.35;;;;;;;;;;5093198;28;20028;-67
2023/10/07 14:34:00;;;;;;;8.93;2.45;;;;;;;;;;5092297;28;20020;-67
2023/10/07 14:36:26;;;;;;;9.43;2.47;;;;;;;;;;5092726;28;20028;-67
2023/10/07 14:38:56;;;;;;;8.65;2.80;;;;;;;;;;5092585;28;20032;-67
2023/10/07 14:41:22;;;;;;;8.73;2.28;;;;;;;;;;5092641;28;20110;-68
2023/10/07 14:43:49;;;;;;;9.52;2.45;;;;;;;;;;5092627;28;20028;-67
2023/10/07 14:46:15;;;;;;;10.63;2.38;;;;;;;;;;5092639;28;20073;-67
2023/10/07 14:48:45;;;;;;;8.70;2.45;;;;;;;;;;5092223;28;20038;-67
2023/10/07 14:51:12;;;;;;;7.40;2.17;;;;;;;;;;5092699;28;20492;-67
2023/10/07 14:53:39;;;;;;;9.55;2.72;;;;;;;;;;5092279;28;20044;-67
2023/10/07 14:56:09;;;;;;;8.25;2.42;;;;;;;;;;5092505;28;20053;-67
2023/10/07 14:58:36;;;;;;;12.27;2.45;;;;;;;;;;5092430;28;20038;-67
2023/10/07 15:01:03;;;;;;;10.13;2.50;;;;;;;;;;5094993;28;20016;-67
2023/10/07 15:03:29;;;;;;;15.57;2.90;;;;;;;;;;5096002;28;20046;-67
2023/10/07 15:05:56;;;;;;;7.38;2.70;;;;;;;;;;5096472;28;20030;-67
2023/10/07 15:08:23;;;;;;;8.88;2.53;;;;;;;;;;5096395;28;20090;-66
2023/10/07 15:10:49;;;;;;;11.75;2.38;;;;;;;;;;5096308;28;20507;-66
2023/10/07 15:13:16;;;;;;;10.48;2.83;;;;;;;;;;5096320;28;20016;-67
2023/10/07 15:15:47;;;;;;;7.25;2.50;;;;;;;;;;5096171;28;20026;-66
2023/10/07 15:18:15;;;;;;;13.50;3.05;;;;;;;;;;5077896;28;20038;-66
2023/10/07 15:20:43;;;;;;;8.45;2.40;;;;;;;;;;5096119;28;20024;-67
2023/10/07 15:23:09;;;;;;;18.08;2.72;;;;;;;;;;5096335;28;20026;-67
2023/10/07 15:25:49;;;;;;;13.40;2.38;;;;;;;;;;5096207;28;20046;-67
2023/10/07 15:28:15;;;;;;;7.87;2.63;;;;;;;;;;5096251;28;20020;-67
2023/10/07 15:30:45;;;;;;;5.35;2.20;;;;;;;;;;5096224;28;20024;-66
2023/10/07 15:33:14;;;;;;;9.32;2.42;;;;;;;;;;5095551;28;20024;-66
2023/10/07 15:35:47;;;;;;;9.90;2.35;;;;;;;;;;5096001;28;20016;-66
2023/10/07 15:38:14;;;;;;;10.65;2.30;;;;;;;;;;5096000;28;20027;-67
2023/10/07 15:40:41;;;;;;;14.98;2.35;;;;;;;;;;5095781;28;20024;-66
2023/10/07 15:43:07;;;;;;;15.38;2.60;;;;;;;;;;5095982;28;20028;-66
2023/10/07 15:45:50;;;;;;;4.88;2.60;;;;;;;;;;5094528;28;20024;-66
2023/10/07 15:48:17;;;;;;;11.73;2.63;;;;;;;;;;5095396;28;20028;-66
2023/10/07 15:50:45;;;;;;;11.73;2.70;;;;;;;;;;5095546;28;20031;-66
2023/10/07 15:53:11;;;;;;;13.98;2.92;;;;;;;;;;5095793;28;20027;-67
2023/10/07 15:55:38;;;;;;;12.38;2.33;;;;;;;;;;5095950;28;20044;-66